createdAt,value
2023-04-16T00:00:10.166Z,10.03
2023-04-16T00:01:10.147Z,10.01
2023-04-16T00:02:10.172Z,10.01
2023-04-16T00:03:10.307Z,10.00
2023-04-16T00:04:10.206Z,10.01
2023-04-16T00:05:10.214Z,10.00
2023-04-16T00:06:10.079Z,10.00
2023-04-16T00:07:10.066Z,10.01
2023-04-16T00:08:10.056Z,10.01
2023-04-16T00:09:10.178Z,10.01
2023-04-16T00:10:10.026Z,10.03
2023-04-16T00:11:10.010Z,10.01
2023-04-16T00:12:09.998Z,10.00
2023-04-16T00:13:10.010Z,10.01
2023-04-16T00:14:09.977Z,10.00
2023-04-16T00:15:09.959Z,10.00
2023-04-16T00:16:09.953Z,10.01
2023-04-16T00:17:10.051Z,10.00
2023-04-16T00:18:09.924Z,10.00
2023-04-16T00:19:10.139Z,10.01
2023-04-16T00:20:09.892Z,10.01
2023-04-16T00:21:09.880Z,10.01
2023-04-16T00:22:09.869Z,10.01
2023-04-16T00:23:09.853Z,10.01
2023-04-16T00:24:09.836Z,10.01
2023-04-16T00:25:09.839Z,10.01
2023-04-16T00:26:09.830Z,10.00
2023-04-16T00:27:09.801Z,10.01
2023-04-16T00:28:11.086Z,9.99
2023-04-16T00:29:10.019Z,10.00
2023-04-16T00:30:09.756Z,10.01
2023-04-16T00:31:09.782Z,10.00
2023-04-16T00:32:09.730Z,10.00
2023-04-16T00:33:09.718Z,10.01
2023-04-16T00:34:09.709Z,10.01
2023-04-16T00:35:09.694Z,10.01
2023-04-16T00:36:09.705Z,10.00
2023-04-16T00:37:09.661Z,10.01
2023-04-16T00:38:09.654Z,10.01
2023-04-16T00:39:09.864Z,10.01
2023-04-16T00:40:09.626Z,10.01
2023-04-16T00:41:09.624Z,10.01
2023-04-16T00:42:09.599Z,10.01
2023-04-16T00:43:09.583Z,10.01
2023-04-16T00:44:09.570Z,10.01
2023-04-16T00:45:09.593Z,10.01
2023-04-16T00:46:09.583Z,10.01
2023-04-16T00:47:09.533Z,10.01
2023-04-16T00:48:09.519Z,10.01
2023-04-16T00:49:09.698Z,10.01
2023-04-16T00:50:09.489Z,10.01
2023-04-16T00:51:09.477Z,10.03
2023-04-16T00:52:09.462Z,10.01
2023-04-16T00:53:09.450Z,10.01
2023-04-16T00:54:09.439Z,10.01
2023-04-16T00:55:09.421Z,10.01
2023-04-16T00:56:09.410Z,10.00
2023-04-16T00:57:09.403Z,9.99
2023-04-16T00:58:09.389Z,10.00
2023-04-16T00:59:09.487Z,10.00
2023-04-16T01:00:09.360Z,10.01
2023-04-16T01:01:09.396Z,10.00
2023-04-16T01:02:09.444Z,10.01
2023-04-16T01:03:09.454Z,10.00
2023-04-16T01:04:09.377Z,9.99
2023-04-16T01:05:09.335Z,10.00
2023-04-16T01:06:09.279Z,10.00
2023-04-16T01:07:09.265Z,10.00
2023-04-16T01:08:09.255Z,10.00
2023-04-16T01:09:09.479Z,10.01
2023-04-16T01:10:09.243Z,10.01
2023-04-16T01:11:09.213Z,10.01
2023-04-16T01:12:09.201Z,10.00
2023-04-16T01:13:09.189Z,10.00
2023-04-16T01:14:09.175Z,10.00
2023-04-16T01:15:09.166Z,10.01
2023-04-16T01:16:09.284Z,10.01
2023-04-16T01:17:09.158Z,10.01
2023-04-16T01:18:09.122Z,10.01
2023-04-16T01:19:09.334Z,10.00
2023-04-16T01:20:09.096Z,10.00
2023-04-16T01:21:09.094Z,10.01
2023-04-16T01:22:09.072Z,10.00
2023-04-16T01:23:09.054Z,10.00
2023-04-16T01:24:09.053Z,10.00
2023-04-16T01:25:09.028Z,10.00
2023-04-16T01:26:09.021Z,10.00
2023-04-16T01:27:09.000Z,10.01
2023-04-16T01:28:09.003Z,10.00
2023-04-16T01:29:09.240Z,10.00
2023-04-16T01:30:08.963Z,10.00
2023-04-16T01:31:09.024Z,10.00
2023-04-16T01:32:08.933Z,10.01
2023-04-16T01:33:08.951Z,9.99
2023-04-16T01:34:08.907Z,10.00
2023-04-16T01:35:08.896Z,10.00
2023-04-16T01:36:08.884Z,10.00
2023-04-16T01:37:08.875Z,9.99
2023-04-16T01:38:08.858Z,10.00
2023-04-16T01:39:08.974Z,9.99
2023-04-16T01:40:08.842Z,9.99
2023-04-16T01:41:08.832Z,10.00
2023-04-16T01:42:08.804Z,9.99
2023-04-16T01:43:08.795Z,9.99
2023-04-16T01:44:08.778Z,10.00
2023-04-16T01:45:08.761Z,10.00
2023-04-16T01:46:08.782Z,10.00
2023-04-16T01:47:08.744Z,10.00
2023-04-16T01:48:08.726Z,9.99
2023-04-16T01:49:08.985Z,10.00
2023-04-16T01:50:08.708Z,10.00
2023-04-16T01:51:08.686Z,10.00
2023-04-16T01:52:08.677Z,10.00
2023-04-16T01:53:08.656Z,10.00
2023-04-16T01:54:08.650Z,10.01
2023-04-16T01:55:08.639Z,10.00
2023-04-16T01:56:08.639Z,10.01
2023-04-16T01:57:08.603Z,9.99
2023-04-16T01:58:08.593Z,10.00
2023-04-16T01:59:08.787Z,10.00
2023-04-16T02:00:08.566Z,9.99
2023-04-16T02:01:08.626Z,10.00
2023-04-16T02:02:08.696Z,10.00
2023-04-16T02:03:08.654Z,10.00
2023-04-16T02:04:08.578Z,10.00
2023-04-16T02:05:08.519Z,10.00
2023-04-16T02:06:08.485Z,10.00
2023-04-16T02:07:08.487Z,10.00
2023-04-16T02:08:08.462Z,10.00
2023-04-16T02:09:08.709Z,10.00
2023-04-16T02:10:08.447Z,9.99
2023-04-16T02:11:08.414Z,10.00
2023-04-16T02:12:08.405Z,10.00
2023-04-16T02:13:08.387Z,10.00
2023-04-16T02:14:08.394Z,9.99
2023-04-16T02:15:08.360Z,9.99
2023-04-16T02:16:08.386Z,10.00
2023-04-16T02:17:08.335Z,9.99
2023-04-16T02:18:08.400Z,10.00
2023-04-16T02:19:08.949Z,9.99
2023-04-16T02:20:08.300Z,10.00
2023-04-16T02:21:08.302Z,10.00
2023-04-16T02:22:08.278Z,10.01
2023-04-16T02:23:08.253Z,10.00
2023-04-16T02:24:08.258Z,10.00
2023-04-16T02:25:08.235Z,10.00
2023-04-16T02:26:08.210Z,9.97
2023-04-16T02:27:08.201Z,9.99
2023-04-16T02:28:08.187Z,9.99
2023-04-16T02:29:08.576Z,10.00
2023-04-16T02:30:08.165Z,9.99
2023-04-16T02:31:08.145Z,10.00
2023-04-16T02:32:08.400Z,9.99
2023-04-16T02:33:08.122Z,9.99
2023-04-16T02:34:08.108Z,9.97
2023-04-16T02:35:08.092Z,10.01
2023-04-16T02:36:08.084Z,10.00
2023-04-16T02:37:08.089Z,9.99
2023-04-16T02:38:08.061Z,10.00
2023-04-16T02:39:08.289Z,10.00
2023-04-16T02:40:08.026Z,9.99
2023-04-16T02:41:08.026Z,9.99
2023-04-16T02:42:08.010Z,9.99
2023-04-16T02:43:07.985Z,9.99
2023-04-16T02:44:07.982Z,9.99
2023-04-16T02:45:07.958Z,9.99
2023-04-16T02:46:08.054Z,9.99
2023-04-16T02:47:07.938Z,9.99
2023-04-16T02:48:07.923Z,9.99
2023-04-16T02:49:08.202Z,9.99
2023-04-16T02:50:07.894Z,9.97
2023-04-16T02:51:07.879Z,9.99
2023-04-16T02:52:07.863Z,9.99
2023-04-16T02:53:07.899Z,9.99
2023-04-16T02:54:07.840Z,10.00
2023-04-16T02:55:07.828Z,9.99
2023-04-16T02:56:07.813Z,9.99
2023-04-16T02:57:07.798Z,9.99
2023-04-16T02:58:07.785Z,9.97
2023-04-16T02:59:08.119Z,9.97
2023-04-16T03:00:07.760Z,9.97
2023-04-16T03:01:07.766Z,9.99
2023-04-16T03:02:07.771Z,9.97
2023-04-16T03:03:07.846Z,9.99
2023-04-16T03:04:07.778Z,9.99
2023-04-16T03:05:07.694Z,10.00
2023-04-16T03:06:07.680Z,9.99
2023-04-16T03:07:07.666Z,9.97
2023-04-16T03:08:07.654Z,9.97
2023-04-16T03:09:07.946Z,9.97
2023-04-16T03:10:07.624Z,9.97
2023-04-16T03:11:07.621Z,9.99
2023-04-16T03:12:07.597Z,9.99
2023-04-16T03:13:07.588Z,9.97
2023-04-16T03:14:07.575Z,9.99
2023-04-16T03:15:07.569Z,9.99
2023-04-16T03:16:07.587Z,9.97
2023-04-16T03:17:07.540Z,9.99
2023-04-16T03:18:07.522Z,9.99
2023-04-16T03:19:07.625Z,9.99
2023-04-16T03:20:07.491Z,9.99
2023-04-16T03:21:07.478Z,9.99
2023-04-16T03:22:07.470Z,9.99
2023-04-16T03:23:07.452Z,9.99
2023-04-16T03:24:07.465Z,9.97
2023-04-16T03:25:07.450Z,9.99
2023-04-16T03:26:07.416Z,9.97
2023-04-16T03:27:07.410Z,9.99
2023-04-16T03:28:07.386Z,9.97
2023-04-16T03:29:07.524Z,9.99
2023-04-16T03:30:07.362Z,9.99
2023-04-16T03:31:07.397Z,9.99
2023-04-16T03:32:07.333Z,9.97
2023-04-16T03:33:07.320Z,9.99
2023-04-16T03:34:07.311Z,9.99
2023-04-16T03:35:07.290Z,9.97
2023-04-16T03:36:07.289Z,9.97
2023-04-16T03:37:07.272Z,9.99
2023-04-16T03:38:07.251Z,9.97
2023-04-16T03:39:07.468Z,9.97
2023-04-16T03:40:07.253Z,9.97
2023-04-16T03:41:07.233Z,9.97
2023-04-16T03:42:07.201Z,9.97
2023-04-16T03:43:07.183Z,9.97
2023-04-16T03:44:07.175Z,9.97
2023-04-16T03:45:07.158Z,9.97
2023-04-16T03:46:07.171Z,9.99
2023-04-16T03:47:07.150Z,9.99
2023-04-16T03:48:07.130Z,9.97
2023-04-16T03:49:07.319Z,9.97
2023-04-16T03:50:07.092Z,9.97
2023-04-16T03:51:07.081Z,9.99
2023-04-16T03:52:07.064Z,9.99
2023-04-16T03:53:07.048Z,9.99
2023-04-16T03:54:07.040Z,9.96
2023-04-16T03:55:07.060Z,9.96
2023-04-16T03:56:07.016Z,9.99
2023-04-16T03:57:07.020Z,9.97
2023-04-16T03:58:06.993Z,9.99
2023-04-16T03:59:07.147Z,9.97
2023-04-16T04:00:06.967Z,9.97
2023-04-16T04:01:06.943Z,9.97
2023-04-16T04:02:07.059Z,9.97
2023-04-16T04:03:07.168Z,9.97
2023-04-16T04:04:07.219Z,9.97
2023-04-16T04:05:06.939Z,9.97
2023-04-16T04:06:06.876Z,9.97
2023-04-16T04:07:06.870Z,9.96
2023-04-16T04:08:06.857Z,9.97
2023-04-16T04:09:06.901Z,9.97
2023-04-16T04:10:06.830Z,9.97
2023-04-16T04:11:06.818Z,9.96
2023-04-16T04:12:06.799Z,9.97
2023-04-16T04:13:06.830Z,9.99
2023-04-16T04:14:06.775Z,9.99
2023-04-16T04:15:06.767Z,9.97
2023-04-16T04:16:06.824Z,9.99
2023-04-16T04:17:06.744Z,9.99
2023-04-16T04:18:06.719Z,9.99
2023-04-16T04:19:06.793Z,9.97
2023-04-16T04:20:06.698Z,9.99
2023-04-16T04:21:06.677Z,9.99
2023-04-16T04:22:06.666Z,9.99
2023-04-16T04:23:06.660Z,9.99
2023-04-16T04:24:06.648Z,9.97
2023-04-16T04:25:06.629Z,9.97
2023-04-16T04:26:06.647Z,9.97
2023-04-16T04:27:06.606Z,9.99
2023-04-16T04:28:06.587Z,9.99
2023-04-16T04:29:06.624Z,9.97
2023-04-16T04:30:06.566Z,9.99
2023-04-16T04:31:06.543Z,9.99
2023-04-16T04:32:06.572Z,9.97
2023-04-16T04:33:06.570Z,9.97
2023-04-16T04:34:06.501Z,9.97
2023-04-16T04:35:06.488Z,9.97
2023-04-16T04:36:06.478Z,9.99
2023-04-16T04:37:06.462Z,9.97
2023-04-16T04:38:06.450Z,9.99
2023-04-16T04:39:06.481Z,9.97
2023-04-16T04:40:06.423Z,9.97
2023-04-16T04:41:06.411Z,9.97
2023-04-16T04:42:06.397Z,9.97
2023-04-16T04:43:06.385Z,9.96
2023-04-16T04:44:06.371Z,9.97
2023-04-16T04:45:06.389Z,9.97
2023-04-16T04:46:06.474Z,9.99
2023-04-16T04:47:06.328Z,9.97
2023-04-16T04:48:06.316Z,9.97
2023-04-16T04:49:06.300Z,9.97
2023-04-16T04:50:06.291Z,9.97
2023-04-16T04:51:06.280Z,9.99
2023-04-16T04:52:06.261Z,9.99
2023-04-16T04:53:06.245Z,9.97
2023-04-16T04:54:06.234Z,9.97
2023-04-16T04:55:06.225Z,9.97
2023-04-16T04:56:12.478Z,9.96
2023-04-16T04:57:07.231Z,9.96
2023-04-16T04:58:06.178Z,9.99
2023-04-16T04:59:06.165Z,9.96
2023-04-16T05:00:06.149Z,9.97
2023-04-16T05:01:06.257Z,9.97
2023-04-16T05:02:06.134Z,9.97
2023-04-16T05:03:06.294Z,9.97
2023-04-16T05:04:06.131Z,9.96
2023-04-16T05:05:06.176Z,9.96
2023-04-16T05:06:06.084Z,9.96
2023-04-16T05:07:06.065Z,9.97
2023-04-16T05:08:06.060Z,9.97
2023-04-16T05:09:06.045Z,9.97
2023-04-16T05:10:06.025Z,9.97
2023-04-16T05:11:06.007Z,9.97
2023-04-16T05:12:05.996Z,9.97
2023-04-16T05:13:05.983Z,9.97
2023-04-16T05:14:05.970Z,9.97
2023-04-16T05:15:05.958Z,9.97
2023-04-16T05:16:05.940Z,9.97
2023-04-16T05:17:06.120Z,9.97
2023-04-16T05:18:05.958Z,9.97
2023-04-16T05:19:05.918Z,9.96
2023-04-16T05:20:05.886Z,9.97
2023-04-16T05:21:05.880Z,9.96
2023-04-16T05:22:05.859Z,9.96
2023-04-16T05:23:05.854Z,9.96
2023-04-16T05:24:05.833Z,9.96
2023-04-16T05:25:05.826Z,9.96
2023-04-16T05:26:05.805Z,9.96
2023-04-16T05:27:05.801Z,9.96
2023-04-16T05:28:05.782Z,9.97
2023-04-16T05:29:05.772Z,9.97
2023-04-16T05:30:05.759Z,9.97
2023-04-16T05:31:05.830Z,9.99
2023-04-16T05:32:05.726Z,9.97
2023-04-16T05:33:05.746Z,9.99
2023-04-16T05:34:05.707Z,9.97
2023-04-16T05:35:05.693Z,9.97
2023-04-16T05:36:05.672Z,9.97
2023-04-16T05:37:05.664Z,9.97
2023-04-16T05:38:05.648Z,9.97
2023-04-16T05:39:05.629Z,9.96
2023-04-16T05:40:05.616Z,9.97
2023-04-16T05:41:05.607Z,9.97
2023-04-16T05:42:05.594Z,9.96
2023-04-16T05:43:05.576Z,9.96
2023-04-16T05:44:05.569Z,9.96
2023-04-16T05:45:05.552Z,9.96
2023-04-16T05:46:05.605Z,9.94
2023-04-16T05:47:05.520Z,9.96
2023-04-16T05:48:05.512Z,9.96
2023-04-16T05:49:05.523Z,9.97
2023-04-16T05:50:05.481Z,9.96
2023-04-16T05:51:05.469Z,9.96
2023-04-16T05:52:05.453Z,9.96
2023-04-16T05:53:05.441Z,9.97
2023-04-16T05:54:05.424Z,9.97
2023-04-16T05:55:05.417Z,9.96
2023-04-16T05:56:05.405Z,9.94
2023-04-16T05:57:05.392Z,9.94
2023-04-16T05:58:05.375Z,9.96
2023-04-16T05:59:05.412Z,9.97
2023-04-16T06:00:05.345Z,9.97
2023-04-16T06:01:05.334Z,9.97
2023-04-16T06:02:05.331Z,9.99
2023-04-16T06:03:05.502Z,9.97
2023-04-16T06:04:05.359Z,9.97
2023-04-16T06:05:05.343Z,9.97
2023-04-16T06:06:05.330Z,9.96
2023-04-16T06:07:05.252Z,9.97
2023-04-16T06:08:05.239Z,9.96
2023-04-16T06:09:05.231Z,9.97
2023-04-16T06:10:05.213Z,9.96
2023-04-16T06:11:05.201Z,9.96
2023-04-16T06:12:05.187Z,9.96
2023-04-16T06:13:05.173Z,9.97
2023-04-16T06:14:05.161Z,9.97
2023-04-16T06:15:05.151Z,9.97
2023-04-16T06:16:05.166Z,9.96
2023-04-16T06:17:05.122Z,9.97
2023-04-16T06:18:05.159Z,9.96
2023-04-16T06:19:05.098Z,9.96
2023-04-16T06:20:05.075Z,9.97
2023-04-16T06:21:05.093Z,9.94
2023-04-16T06:22:05.052Z,9.97
2023-04-16T06:23:05.059Z,9.96
2023-04-16T06:24:05.028Z,9.96
2023-04-16T06:25:05.014Z,9.96
2023-04-16T06:26:05.005Z,9.97
2023-04-16T06:27:04.988Z,9.96
2023-04-16T06:28:04.972Z,9.94
2023-04-16T06:29:04.959Z,9.94
2023-04-16T06:30:04.946Z,9.96
2023-04-16T06:31:05.016Z,9.97
2023-04-16T06:32:04.917Z,9.96
2023-04-16T06:33:04.955Z,9.97
2023-04-16T06:34:04.904Z,9.97
2023-04-16T06:35:04.880Z,9.97
2023-04-16T06:36:04.868Z,9.97
2023-04-16T06:37:04.877Z,9.96
2023-04-16T06:38:04.835Z,9.96
2023-04-16T06:39:04.836Z,9.96
2023-04-16T06:40:04.932Z,9.96
2023-04-16T06:41:04.836Z,9.96
2023-04-16T06:42:04.858Z,9.97
2023-04-16T06:43:04.826Z,9.94
2023-04-16T06:44:04.800Z,9.93
2023-04-16T06:45:04.816Z,9.96
2023-04-16T06:46:04.774Z,9.97
2023-04-16T06:47:04.827Z,9.96
2023-04-16T06:48:04.766Z,9.96
2023-04-16T06:49:04.693Z,9.96
2023-04-16T06:50:04.679Z,9.94
2023-04-16T06:51:04.664Z,9.97
2023-04-16T06:52:05.924Z,9.96
2023-04-16T06:53:04.664Z,9.96
2023-04-16T06:54:04.649Z,9.96
2023-04-16T06:55:04.612Z,9.96
2023-04-16T06:56:04.598Z,9.96
2023-04-16T06:57:04.583Z,9.96
2023-04-16T06:58:04.570Z,9.96
2023-04-16T06:59:04.561Z,9.96
2023-04-16T07:00:04.545Z,9.96
2023-04-16T07:01:04.556Z,9.94
2023-04-16T07:02:04.570Z,9.96
2023-04-16T07:03:04.648Z,9.94
2023-04-16T07:04:04.632Z,9.96
2023-04-16T07:05:04.477Z,9.96
2023-04-16T07:06:04.460Z,9.94
2023-04-16T07:07:04.478Z,9.94
2023-04-16T07:08:04.440Z,9.96
2023-04-16T07:09:04.452Z,9.96
2023-04-16T07:10:04.408Z,9.97
2023-04-16T07:11:04.398Z,9.96
2023-04-16T07:12:04.386Z,9.94
2023-04-16T07:13:04.370Z,9.97
2023-04-16T07:14:04.356Z,9.94
2023-04-16T07:15:04.346Z,9.93
2023-04-16T07:16:04.337Z,9.93
2023-04-16T07:17:04.334Z,9.94
2023-04-16T07:18:04.313Z,9.96
2023-04-16T07:19:04.288Z,9.96
2023-04-16T07:20:04.278Z,9.96
2023-04-16T07:21:04.265Z,9.96
2023-04-16T07:22:04.251Z,9.96
2023-04-16T07:23:04.241Z,9.96
2023-04-16T07:24:04.222Z,9.97
2023-04-16T07:25:04.235Z,9.96
2023-04-16T07:26:04.196Z,9.94
2023-04-16T07:27:04.183Z,9.96
2023-04-16T07:28:04.168Z,9.97
2023-04-16T07:29:04.164Z,9.94
2023-04-16T07:30:04.157Z,9.96
2023-04-16T07:31:04.131Z,9.96
2023-04-16T07:32:04.150Z,9.97
2023-04-16T07:33:04.167Z,9.96
2023-04-16T07:34:04.088Z,9.96
2023-04-16T07:35:04.078Z,9.97
2023-04-16T07:36:04.068Z,9.97
2023-04-16T07:37:04.060Z,9.97
2023-04-16T07:38:04.035Z,9.96
2023-04-16T07:39:04.023Z,9.96
2023-04-16T07:40:04.018Z,9.97
2023-04-16T07:41:04.024Z,9.97
2023-04-16T07:42:03.980Z,9.99
2023-04-16T07:43:03.970Z,9.99
2023-04-16T07:44:03.968Z,9.99
2023-04-16T07:45:03.941Z,9.99
2023-04-16T07:46:04.044Z,9.97
2023-04-16T07:47:05.521Z,9.97
2023-04-16T07:48:03.935Z,9.99
2023-04-16T07:49:03.889Z,9.97
2023-04-16T07:50:03.880Z,9.97
2023-04-16T07:51:03.862Z,9.96
2023-04-16T07:52:03.846Z,9.97
2023-04-16T07:53:03.848Z,9.97
2023-04-16T07:54:03.825Z,9.97
2023-04-16T07:55:03.809Z,9.99
2023-04-16T07:56:03.799Z,9.99
2023-04-16T07:57:03.805Z,9.97
2023-04-16T07:58:03.767Z,9.96
2023-04-16T07:59:18.477Z,9.97
2023-04-16T08:00:04.785Z,9.96
2023-04-16T08:01:03.729Z,9.97
2023-04-16T08:02:03.821Z,9.96
2023-04-16T08:03:03.936Z,9.97
2023-04-16T08:04:03.900Z,9.99
2023-04-16T08:05:03.732Z,9.96
2023-04-16T08:06:03.661Z,9.96
2023-04-16T08:07:03.649Z,9.97
2023-04-16T08:08:03.632Z,9.97
2023-04-16T08:09:03.623Z,9.96
2023-04-16T08:10:03.605Z,9.97
2023-04-16T08:11:03.605Z,9.97
2023-04-16T08:12:03.582Z,9.99
2023-04-16T08:13:03.594Z,9.97
2023-04-16T08:14:03.552Z,9.97
2023-04-16T08:15:03.557Z,9.97
2023-04-16T08:16:03.593Z,9.97
2023-04-16T08:17:03.515Z,9.96
2023-04-16T08:18:03.567Z,9.97
2023-04-16T08:19:03.487Z,9.97
2023-04-16T08:20:03.474Z,9.97
2023-04-16T08:21:03.472Z,9.97
2023-04-16T08:22:03.444Z,9.97
2023-04-16T08:23:03.437Z,9.99
2023-04-16T08:24:03.419Z,9.97
2023-04-16T08:25:03.413Z,9.97
2023-04-16T08:26:03.396Z,9.97
2023-04-16T08:27:15.551Z,9.97
2023-04-16T08:28:04.411Z,9.97
2023-04-16T08:29:03.380Z,9.99
2023-04-16T08:30:03.339Z,9.97
2023-04-16T08:31:03.369Z,9.97
2023-04-16T08:32:03.315Z,9.99
2023-04-16T08:33:03.345Z,9.97
2023-04-16T08:34:03.290Z,9.99
2023-04-16T08:35:03.298Z,9.99
2023-04-16T08:36:03.264Z,9.97
2023-04-16T08:37:03.247Z,9.97
2023-04-16T08:38:03.235Z,9.99
2023-04-16T08:39:03.220Z,9.99
2023-04-16T08:40:03.205Z,9.99
2023-04-16T08:41:03.197Z,9.99
2023-04-16T08:42:03.179Z,9.97
2023-04-16T08:43:03.165Z,9.97
2023-04-16T08:44:03.167Z,9.97
2023-04-16T08:45:03.168Z,9.99
2023-04-16T08:46:03.124Z,9.99
2023-04-16T08:47:03.168Z,10.00
2023-04-16T08:48:03.123Z,9.97
2023-04-16T08:49:03.086Z,9.99
2023-04-16T08:50:03.070Z,10.00
2023-04-16T08:51:03.061Z,9.99
2023-04-16T08:52:03.046Z,10.00
2023-04-16T08:53:03.031Z,9.99
2023-04-16T08:54:03.034Z,9.99
2023-04-16T08:55:03.019Z,9.99
2023-04-16T08:56:02.991Z,9.99
2023-04-16T08:57:02.980Z,10.00
2023-04-16T08:58:02.964Z,10.00
2023-04-16T08:59:02.951Z,10.00
2023-04-16T09:00:02.964Z,10.00
2023-04-16T09:01:02.952Z,9.99
2023-04-16T09:02:03.020Z,9.99
2023-04-16T09:03:03.037Z,10.00
2023-04-16T09:04:03.050Z,10.00
2023-04-16T09:05:02.939Z,10.00
2023-04-16T09:06:02.858Z,10.00
2023-04-16T09:07:02.855Z,10.00
2023-04-16T09:08:02.843Z,9.99
2023-04-16T09:09:02.826Z,9.99
2023-04-16T09:10:02.811Z,10.00
2023-04-16T09:11:02.793Z,9.99
2023-04-16T09:12:02.787Z,9.99
2023-04-16T09:13:02.772Z,10.00
2023-04-16T09:14:02.757Z,9.99
2023-04-16T09:15:02.753Z,10.00
2023-04-16T09:16:02.772Z,10.00
2023-04-16T09:17:02.750Z,10.00
2023-04-16T09:18:02.782Z,10.00
2023-04-16T09:19:02.697Z,9.99
2023-04-16T09:20:02.682Z,9.99
2023-04-16T09:21:02.657Z,9.99
2023-04-16T09:22:02.650Z,9.97
2023-04-16T09:23:02.643Z,9.99
2023-04-16T09:24:02.622Z,9.97
2023-04-16T09:25:02.607Z,9.97
2023-04-16T09:26:02.593Z,9.99
2023-04-16T09:27:02.586Z,9.96
2023-04-16T09:28:02.571Z,9.99
2023-04-16T09:29:02.551Z,9.97
2023-04-16T09:30:02.544Z,9.97
2023-04-16T09:31:02.530Z,9.97
2023-04-16T09:32:02.609Z,9.99
2023-04-16T09:33:02.628Z,9.97
2023-04-16T09:34:02.493Z,9.99
2023-04-16T09:35:02.471Z,9.97
2023-04-16T09:36:02.460Z,9.97
2023-04-16T09:37:02.445Z,9.97
2023-04-16T09:38:02.433Z,9.99
2023-04-16T09:39:02.429Z,9.99
2023-04-16T09:40:02.413Z,9.97
2023-04-16T09:41:02.399Z,9.97
2023-04-16T09:42:02.393Z,9.99
2023-04-16T09:43:02.420Z,9.96
2023-04-16T09:44:02.483Z,9.99
2023-04-16T09:45:05.001Z,9.97
2023-04-16T09:46:05.377Z,9.97
2023-04-16T09:47:02.315Z,9.99
2023-04-16T09:48:02.326Z,9.99
2023-04-16T09:49:02.311Z,9.97
2023-04-16T09:50:02.280Z,9.97
2023-04-16T09:51:02.284Z,9.96
2023-04-16T09:52:02.367Z,9.97
2023-04-16T09:53:02.287Z,9.97
2023-04-16T09:54:02.219Z,9.96
2023-04-16T09:55:02.207Z,9.97
2023-04-16T09:56:02.198Z,9.97
2023-04-16T09:57:02.180Z,9.96
2023-04-16T09:58:02.237Z,9.97
2023-04-16T09:59:02.161Z,9.97
2023-04-16T10:00:02.220Z,9.96
2023-04-16T10:01:02.227Z,9.96
2023-04-16T10:02:15.561Z,9.97
2023-04-16T10:03:03.305Z,9.97
2023-04-16T10:04:02.193Z,9.97
2023-04-16T10:05:02.105Z,9.99
2023-04-16T10:06:02.172Z,9.97
2023-04-16T10:07:02.096Z,9.97
2023-04-16T10:08:02.034Z,9.96
2023-04-16T10:09:02.025Z,9.97
2023-04-16T10:10:02.012Z,9.96
2023-04-16T10:11:02.006Z,9.97
2023-04-16T10:12:01.980Z,9.96
2023-04-16T10:13:01.966Z,9.96
2023-04-16T10:14:01.955Z,9.99
2023-04-16T10:15:01.947Z,9.99
2023-04-16T10:16:01.933Z,9.97
2023-04-16T10:17:01.955Z,9.97
2023-04-16T10:18:01.937Z,9.99
2023-04-16T10:19:01.948Z,9.97
2023-04-16T10:20:01.988Z,9.96
2023-04-16T10:21:01.884Z,9.96
2023-04-16T10:22:01.856Z,9.97
2023-04-16T10:23:01.836Z,9.97
2023-04-16T10:24:01.936Z,9.96
2023-04-16T10:25:01.805Z,9.97
2023-04-16T10:26:01.794Z,9.99
2023-04-16T10:27:01.795Z,9.97
2023-04-16T10:28:01.842Z,9.96
2023-04-16T10:29:01.781Z,9.97
2023-04-16T10:30:01.744Z,9.99
2023-04-16T10:31:01.792Z,9.96
2023-04-16T10:32:01.715Z,9.96
2023-04-16T10:33:01.794Z,9.97
2023-04-16T10:34:01.688Z,9.97
2023-04-16T10:35:01.772Z,9.97
2023-04-16T10:36:07.511Z,9.96
2023-04-16T10:37:01.700Z,9.99
2023-04-16T10:38:01.630Z,9.99
2023-04-16T10:39:01.633Z,9.99
2023-04-16T10:40:01.619Z,9.97
2023-04-16T10:41:01.594Z,9.99
2023-04-16T10:42:01.584Z,9.97
2023-04-16T10:43:01.602Z,9.99
2023-04-16T10:44:01.568Z,9.99
2023-04-16T10:45:01.538Z,9.99
2023-04-16T10:46:01.557Z,9.99
2023-04-16T10:47:01.511Z,9.99
2023-04-16T10:48:01.513Z,9.99
2023-04-16T10:49:01.483Z,9.99
2023-04-16T10:50:01.486Z,10.01
2023-04-16T10:51:01.467Z,10.00
2023-04-16T10:52:01.444Z,9.99
2023-04-16T10:53:01.452Z,10.01
2023-04-16T10:54:01.418Z,10.01
2023-04-16T10:55:01.434Z,10.00
2023-04-16T10:56:01.425Z,10.01
2023-04-16T10:57:04.282Z,10.00
2023-04-16T10:58:01.376Z,10.01
2023-04-16T10:59:01.358Z,10.01
2023-04-16T11:00:01.344Z,10.03
2023-04-16T11:01:01.319Z,10.01
2023-04-16T11:02:01.471Z,10.03
2023-04-16T11:03:01.380Z,10.03
2023-04-16T11:04:01.420Z,10.03
2023-04-16T11:05:01.338Z,10.03
2023-04-16T11:06:01.256Z,10.04
2023-04-16T11:07:01.239Z,10.04
2023-04-16T11:08:01.230Z,10.03
2023-04-16T11:09:01.253Z,10.04
2023-04-16T11:10:01.207Z,10.04
2023-04-16T11:11:01.182Z,10.06
2023-04-16T11:12:01.174Z,10.06
2023-04-16T11:13:01.159Z,10.06
2023-04-16T11:14:01.155Z,10.04
2023-04-16T11:15:01.173Z,10.06
2023-04-16T11:16:01.174Z,10.06
2023-04-16T11:17:01.107Z,10.07
2023-04-16T11:18:01.160Z,10.06
2023-04-16T11:19:01.091Z,10.07
2023-04-16T11:20:01.112Z,10.09
2023-04-16T11:21:01.056Z,10.07
2023-04-16T11:22:01.042Z,10.09
2023-04-16T11:23:01.027Z,10.10
2023-04-16T11:24:01.010Z,10.09
2023-04-16T11:25:01.059Z,10.10
2023-04-16T11:26:00.988Z,10.12
2023-04-16T11:27:00.973Z,10.12
2023-04-16T11:28:00.963Z,10.14
2023-04-16T11:29:00.965Z,10.14
2023-04-16T11:30:00.945Z,10.12
2023-04-16T11:31:00.952Z,10.14
2023-04-16T11:32:00.911Z,10.14
2023-04-16T11:33:00.952Z,10.15
2023-04-16T11:34:00.883Z,10.15
2023-04-16T11:35:00.865Z,10.15
2023-04-16T11:36:00.855Z,10.15
2023-04-16T11:37:00.840Z,10.17
2023-04-16T11:38:00.844Z,10.15
2023-04-16T11:39:00.810Z,10.15
2023-04-16T11:40:00.799Z,10.18
2023-04-16T11:41:00.810Z,10.17
2023-04-16T11:42:00.802Z,10.17
2023-04-16T11:43:00.762Z,10.17
2023-04-16T11:44:00.745Z,10.17
2023-04-16T11:45:00.743Z,10.17
2023-04-16T11:46:01.598Z,10.17
2023-04-16T11:47:00.736Z,10.17
2023-04-16T11:48:00.717Z,10.17
2023-04-16T11:49:00.680Z,10.15
2023-04-16T11:50:00.663Z,10.18
2023-04-16T11:51:00.659Z,10.18
2023-04-16T11:52:00.647Z,10.18
2023-04-16T11:53:00.629Z,10.17
2023-04-16T11:54:00.612Z,10.17
2023-04-16T11:55:00.596Z,10.18
2023-04-16T11:56:00.585Z,10.18
2023-04-16T11:57:00.594Z,10.18
2023-04-16T11:58:00.558Z,10.19
2023-04-16T11:59:00.550Z,10.19
2023-04-16T12:00:01.569Z,10.19
2023-04-16T12:01:00.517Z,10.19
2023-04-16T12:02:00.603Z,10.21
2023-04-16T12:03:00.576Z,10.19
2023-04-16T12:04:00.750Z,10.21
2023-04-16T12:05:00.515Z,10.21
2023-04-16T12:06:00.484Z,10.21
2023-04-16T12:07:00.438Z,10.21
2023-04-16T12:08:00.439Z,10.21
2023-04-16T12:09:00.413Z,10.22
2023-04-16T12:10:00.403Z,10.21
2023-04-16T12:11:00.385Z,10.21
2023-04-16T12:12:00.373Z,10.22
2023-04-16T12:13:00.384Z,10.22
2023-04-16T12:14:00.352Z,10.21
2023-04-16T12:15:00.381Z,10.19
2023-04-16T12:16:00.317Z,10.21
2023-04-16T12:17:00.381Z,10.18
2023-04-16T12:18:00.450Z,10.19
2023-04-16T12:19:00.279Z,10.18
2023-04-16T12:20:00.264Z,10.17
2023-04-16T12:21:00.254Z,10.18
2023-04-16T12:22:00.245Z,10.18
2023-04-16T12:23:00.227Z,10.17
2023-04-16T12:24:00.213Z,10.18
2023-04-16T12:25:00.246Z,10.17
2023-04-16T12:26:00.194Z,10.17
2023-04-16T12:27:00.195Z,10.18
2023-04-16T12:28:00.173Z,10.17
2023-04-16T12:29:00.165Z,10.15
2023-04-16T12:30:00.148Z,10.18
2023-04-16T12:31:00.204Z,10.17
2023-04-16T12:32:00.133Z,10.17
2023-04-16T12:33:00.134Z,10.17
2023-04-16T12:34:00.096Z,10.19
2023-04-16T12:35:00.072Z,10.19
2023-04-16T12:36:00.475Z,10.18
2023-04-16T12:37:00.040Z,10.21
2023-04-16T12:38:00.036Z,10.21
2023-04-16T12:39:00.014Z,10.22
2023-04-16T12:39:59.999Z,10.22
2023-04-16T12:40:59.984Z,10.22
2023-04-16T12:41:59.971Z,10.22
2023-04-16T12:42:59.958Z,10.21
2023-04-16T12:43:59.947Z,10.22
2023-04-16T12:44:59.953Z,10.22
2023-04-16T12:46:01.174Z,10.24
2023-04-16T12:46:59.907Z,10.24
2023-04-16T12:47:59.918Z,10.24
2023-04-16T12:48:59.883Z,10.24
2023-04-16T12:49:59.875Z,10.25
2023-04-16T12:50:59.851Z,10.25
2023-04-16T12:51:59.841Z,10.22
2023-04-16T12:52:59.825Z,10.25
2023-04-16T12:53:59.813Z,10.24
2023-04-16T12:54:59.796Z,10.24
2023-04-16T12:55:59.790Z,10.22
2023-04-16T12:56:59.773Z,10.24
2023-04-16T12:57:59.767Z,10.22
2023-04-16T12:58:59.745Z,10.24
2023-04-16T12:59:59.736Z,10.25
2023-04-16T13:00:59.739Z,10.22
2023-04-16T13:01:59.806Z,10.24
2023-04-16T13:02:59.906Z,10.25
2023-04-16T13:03:59.813Z,10.24
2023-04-16T13:04:59.665Z,10.22
2023-04-16T13:05:59.656Z,10.22
2023-04-16T13:06:59.647Z,10.24
2023-04-16T13:07:59.626Z,10.24